sensor_id;sensor_type;location;lat;lon;timestamp;temperature;humidity
64718;DHT22;62506;46.070;14.492;2024-03-17T00:02:02;21.90;59.60
64718;DHT22;62506;46.070;14.492;2024-03-17T00:04:27;21.90;59.60
64718;DHT22;62506;46.070;14.492;2024-03-17T00:06:53;21.90;59.60
64718;DHT22;62506;46.070;14.492;2024-03-17T00:09:18;21.90;59.70
64718;DHT22;62506;46.070;14.492;2024-03-17T00:11:44;21.90;59.70
64718;DHT22;62506;46.070;14.492;2024-03-17T00:14:10;21.90;59.60
64718;DHT22;62506;46.070;14.492;2024-03-17T00:16:37;21.90;59.60
64718;DHT22;62506;46.070;14.492;2024-03-17T00:19:02;21.90;59.50
64718;DHT22;62506;46.070;14.492;2024-03-17T00:21:27;21.90;59.50
64718;DHT22;62506;46.070;14.492;2024-03-17T00:23:54;21.90;59.50
64718;DHT22;62506;46.070;14.492;2024-03-17T00:26:19;21.90;59.30
64718;DHT22;62506;46.070;14.492;2024-03-17T00:28:45;21.90;59.30
64718;DHT22;62506;46.070;14.492;2024-03-17T00:31:13;21.90;59.30
64718;DHT22;62506;46.070;14.492;2024-03-17T00:33:40;21.90;59.30
64718;DHT22;62506;46.070;14.492;2024-03-17T00:36:05;21.90;59.30
64718;DHT22;62506;46.070;14.492;2024-03-17T00:38:31;21.90;59.30
64718;DHT22;62506;46.070;14.492;2024-03-17T00:40:56;21.90;59.30
64718;DHT22;62506;46.070;14.492;2024-03-17T00:43:22;21.90;59.30
64718;DHT22;62506;46.070;14.492;2024-03-17T00:45:51;21.90;59.20
64718;DHT22;62506;46.070;14.492;2024-03-17T00:48:16;21.90;59.40
64718;DHT22;62506;46.070;14.492;2024-03-17T00:50:42;21.90;59.20
64718;DHT22;62506;46.070;14.492;2024-03-17T00:53:10;21.90;59.30
64718;DHT22;62506;46.070;14.492;2024-03-17T00:55:35;21.90;59.20
64718;DHT22;62506;46.070;14.492;2024-03-17T00:58:01;21.90;59.20
64718;DHT22;62506;46.070;14.492;2024-03-17T01:00:26;21.90;59.20
64718;DHT22;62506;46.070;14.492;2024-03-17T01:02:52;21.90;59.20
64718;DHT22;62506;46.070;14.492;2024-03-17T01:05:17;21.90;59.20
64718;DHT22;62506;46.070;14.492;2024-03-17T01:07:43;21.90;59.30
64718;DHT22;62506;46.070;14.492;2024-03-17T01:10:08;21.90;59.30
64718;DHT22;62506;46.070;14.492;2024-03-17T01:12:34;21.90;59.50
64718;DHT22;62506;46.070;14.492;2024-03-17T01:15:02;21.90;59.60
64718;DHT22;62506;46.070;14.492;2024-03-17T01:17:27;21.90;59.60
64718;DHT22;62506;46.070;14.492;2024-03-17T01:19:54;21.90;59.60
64718;DHT22;62506;46.070;14.492;2024-03-17T01:22:20;21.90;59.70
64718;DHT22;62506;46.070;14.492;2024-03-17T01:24:45;21.90;59.60
64718;DHT22;62506;46.070;14.492;2024-03-17T01:27:11;21.90;59.70
64718;DHT22;62506;46.070;14.492;2024-03-17T01:29:39;21.90;59.70
64718;DHT22;62506;46.070;14.492;2024-03-17T01:32:05;21.90;59.70
64718;DHT22;62506;46.070;14.492;2024-03-17T01:34:31;21.80;59.70
64718;DHT22;62506;46.070;14.492;2024-03-17T01:36:56;21.80;59.70
64718;DHT22;62506;46.070;14.492;2024-03-17T01:39:22;21.90;59.80
64718;DHT22;62506;46.070;14.492;2024-03-17T01:41:47;21.80;59.50
64718;DHT22;62506;46.070;14.492;2024-03-17T01:44:22;21.90;59.50
64718;DHT22;62506;46.070;14.492;2024-03-17T01:46:50;21.90;59.50
64718;DHT22;62506;46.070;14.492;2024-03-17T01:49:15;21.80;59.60
64718;DHT22;62506;46.070;14.492;2024-03-17T01:51:41;21.80;59.70
64718;DHT22;62506;46.070;14.492;2024-03-17T01:54:08;21.80;59.70
64718;DHT22;62506;46.070;14.492;2024-03-17T01:56:33;21.80;59.70
64718;DHT22;62506;46.070;14.492;2024-03-17T01:58:59;21.80;59.70
64718;DHT22;62506;46.070;14.492;2024-03-17T02:01:25;21.80;59.70
64718;DHT22;62506;46.070;14.492;2024-03-17T02:03:51;21.80;59.70
64718;DHT22;62506;46.070;14.492;2024-03-17T02:06:16;21.80;59.60
64718;DHT22;62506;46.070;14.492;2024-03-17T02:08:48;21.80;59.50
64718;DHT22;62506;46.070;14.492;2024-03-17T02:11:27;21.80;59.50
64718;DHT22;62506;46.070;14.492;2024-03-17T02:13:53;21.80;59.50
64718;DHT22;62506;46.070;14.492;2024-03-17T02:16:19;21.80;59.40
64718;DHT22;62506;46.070;14.492;2024-03-17T02:18:45;21.80;59.40
64718;DHT22;62506;46.070;14.492;2024-03-17T02:21:12;21.80;59.30
64718;DHT22;62506;46.070;14.492;2024-03-17T02:23:37;21.80;59.30
64718;DHT22;62506;46.070;14.492;2024-03-17T02:26:03;21.80;59.30
64718;DHT22;62506;46.070;14.492;2024-03-17T02:28:28;21.80;59.30
64718;DHT22;62506;46.070;14.492;2024-03-17T02:30:54;21.80;59.30
64718;DHT22;62506;46.070;14.492;2024-03-17T02:33:19;21.80;59.30
64718;DHT22;62506;46.070;14.492;2024-03-17T02:35:48;21.80;59.20
64718;DHT22;62506;46.070;14.492;2024-03-17T02:38:17;21.80;59.20
64718;DHT22;62506;46.070;14.492;2024-03-17T02:41:02;21.80;59.20
64718;DHT22;62506;46.070;14.492;2024-03-17T02:43:29;21.80;59.30
64718;DHT22;62506;46.070;14.492;2024-03-17T02:45:54;21.80;59.20
64718;DHT22;62506;46.070;14.492;2024-03-17T02:48:20;21.80;59.20
64718;DHT22;62506;46.070;14.492;2024-03-17T02:50:47;21.80;59.30
64718;DHT22;62506;46.070;14.492;2024-03-17T02:53:13;21.80;59.30
64718;DHT22;62506;46.070;14.492;2024-03-17T02:55:39;21.90;59.40
64718;DHT22;62506;46.070;14.492;2024-03-17T02:58:05;21.90;59.30
64718;DHT22;62506;46.070;14.492;2024-03-17T03:00:31;21.80;59.20
64718;DHT22;62506;46.070;14.492;2024-03-17T03:02:57;21.80;59.30
64718;DHT22;62506;46.070;14.492;2024-03-17T03:05:23;21.80;59.30
64718;DHT22;62506;46.070;14.492;2024-03-17T03:07:48;21.90;59.30
64718;DHT22;62506;46.070;14.492;2024-03-17T03:10:14;21.80;59.30
64718;DHT22;62506;46.070;14.492;2024-03-17T03:12:39;21.80;59.20
64718;DHT22;62506;46.070;14.492;2024-03-17T03:15:05;21.80;59.20
64718;DHT22;62506;46.070;14.492;2024-03-17T03:17:30;21.80;59.20
64718;DHT22;62506;46.070;14.492;2024-03-17T03:19:56;21.80;59.20
64718;DHT22;62506;46.070;14.492;2024-03-17T03:22:21;21.90;59.30
64718;DHT22;62506;46.070;14.492;2024-03-17T03:24:47;21.90;59.30
64718;DHT22;62506;46.070;14.492;2024-03-17T03:27:13;21.80;59.30
64718;DHT22;62506;46.070;14.492;2024-03-17T03:29:38;21.90;59.30
64718;DHT22;62506;46.070;14.492;2024-03-17T03:32:04;21.90;59.30
64718;DHT22;62506;46.070;14.492;2024-03-17T03:34:29;21.90;59.30
64718;DHT22;62506;46.070;14.492;2024-03-17T03:36:55;21.90;59.30
64718;DHT22;62506;46.070;14.492;2024-03-17T03:39:21;21.80;59.20
64718;DHT22;62506;46.070;14.492;2024-03-17T03:41:47;21.90;59.20
64718;DHT22;62506;46.070;14.492;2024-03-17T03:44:12;21.90;59.30
64718;DHT22;62506;46.070;14.492;2024-03-17T03:46:38;21.90;59.30
64718;DHT22;62506;46.070;14.492;2024-03-17T03:49:04;21.80;59.20
64718;DHT22;62506;46.070;14.492;2024-03-17T03:51:29;21.80;59.20
64718;DHT22;62506;46.070;14.492;2024-03-17T03:53:55;21.90;59.30
64718;DHT22;62506;46.070;14.492;2024-03-17T03:56:20;21.90;59.30
64718;DHT22;62506;46.070;14.492;2024-03-17T03:58:46;21.90;59.30
64718;DHT22;62506;46.070;14.492;2024-03-17T04:01:11;21.90;59.30
64718;DHT22;62506;46.070;14.492;2024-03-17T04:03:37;21.90;59.30
64718;DHT22;62506;46.070;14.492;2024-03-17T04:06:07;21.90;59.30
64718;DHT22;62506;46.070;14.492;2024-03-17T04:08:39;21.90;59.30
64718;DHT22;62506;46.070;14.492;2024-03-17T04:11:08;21.80;59.30
64718;DHT22;62506;46.070;14.492;2024-03-17T04:13:33;21.90;59.30
64718;DHT22;62506;46.070;14.492;2024-03-17T04:15:59;21.90;59.30
64718;DHT22;62506;46.070;14.492;2024-03-17T04:18:25;21.90;59.30
64718;DHT22;62506;46.070;14.492;2024-03-17T04:20:52;21.80;59.20
64718;DHT22;62506;46.070;14.492;2024-03-17T04:23:18;21.80;59.20
64718;DHT22;62506;46.070;14.492;2024-03-17T04:25:44;21.80;59.30
64718;DHT22;62506;46.070;14.492;2024-03-17T04:28:09;21.80;59.30
64718;DHT22;62506;46.070;14.492;2024-03-17T04:30:35;21.90;59.40
64718;DHT22;62506;46.070;14.492;2024-03-17T04:33:00;21.80;59.40
64718;DHT22;62506;46.070;14.492;2024-03-17T04:35:26;21.80;59.30
64718;DHT22;62506;46.070;14.492;2024-03-17T04:37:51;21.80;59.30
64718;DHT22;62506;46.070;14.492;2024-03-17T04:40:17;21.80;59.30
64718;DHT22;62506;46.070;14.492;2024-03-17T04:42:44;21.80;59.30
64718;DHT22;62506;46.070;14.492;2024-03-17T04:45:09;21.80;59.30
64718;DHT22;62506;46.070;14.492;2024-03-17T04:47:35;21.80;59.30
64718;DHT22;62506;46.070;14.492;2024-03-17T04:50:00;21.80;59.30
64718;DHT22;62506;46.070;14.492;2024-03-17T04:52:26;21.80;59.30
64718;DHT22;62506;46.070;14.492;2024-03-17T04:54:51;21.80;59.30
64718;DHT22;62506;46.070;14.492;2024-03-17T04:57:17;21.90;59.30
64718;DHT22;62506;46.070;14.492;2024-03-17T04:59:42;21.80;59.40
64718;DHT22;62506;46.070;14.492;2024-03-17T05:02:08;21.80;59.30
64718;DHT22;62506;46.070;14.492;2024-03-17T05:04:33;21.80;59.30
64718;DHT22;62506;46.070;14.492;2024-03-17T05:06:59;21.80;59.40
64718;DHT22;62506;46.070;14.492;2024-03-17T05:09:24;21.80;59.40
64718;DHT22;62506;46.070;14.492;2024-03-17T05:11:50;21.80;59.30
64718;DHT22;62506;46.070;14.492;2024-03-17T05:14:17;21.80;59.30
64718;DHT22;62506;46.070;14.492;2024-03-17T05:16:44;21.80;59.30
64718;DHT22;62506;46.070;14.492;2024-03-17T05:19:10;21.80;59.40
64718;DHT22;62506;46.070;14.492;2024-03-17T05:21:35;21.80;59.40
64718;DHT22;62506;46.070;14.492;2024-03-17T05:24:01;21.80;59.40
64718;DHT22;62506;46.070;14.492;2024-03-17T05:26:27;21.80;59.40
64718;DHT22;62506;46.070;14.492;2024-03-17T05:28:53;21.80;59.50
64718;DHT22;62506;46.070;14.492;2024-03-17T05:31:19;21.80;59.10
64718;DHT22;62506;46.070;14.492;2024-03-17T05:33:46;21.80;59.10
64718;DHT22;62506;46.070;14.492;2024-03-17T05:36:12;21.90;60.20
64718;DHT22;62506;46.070;14.492;2024-03-17T05:38:37;21.90;60.00
64718;DHT22;62506;46.070;14.492;2024-03-17T05:41:04;21.90;59.50
64718;DHT22;62506;46.070;14.492;2024-03-17T05:43:30;21.90;59.30
64718;DHT22;62506;46.070;14.492;2024-03-17T05:45:57;21.90;59.20
64718;DHT22;62506;46.070;14.492;2024-03-17T05:48:23;21.90;59.10
64718;DHT22;62506;46.070;14.492;2024-03-17T05:50:49;21.90;59.20
64718;DHT22;62506;46.070;14.492;2024-03-17T05:53:16;21.90;59.10
64718;DHT22;62506;46.070;14.492;2024-03-17T05:55:43;21.90;59.10
64718;DHT22;62506;46.070;14.492;2024-03-17T05:58:09;22.00;59.10
64718;DHT22;62506;46.070;14.492;2024-03-17T06:00:35;22.00;59.10
64718;DHT22;62506;46.070;14.492;2024-03-17T06:03:00;22.00;59.00
64718;DHT22;62506;46.070;14.492;2024-03-17T06:05:26;22.00;58.90
64718;DHT22;62506;46.070;14.492;2024-03-17T06:07:52;22.00;58.90
64718;DHT22;62506;46.070;14.492;2024-03-17T06:10:17;22.00;58.90
64718;DHT22;62506;46.070;14.492;2024-03-17T06:12:43;22.00;58.90
64718;DHT22;62506;46.070;14.492;2024-03-17T06:15:08;22.10;58.80
64718;DHT22;62506;46.070;14.492;2024-03-17T06:17:34;22.00;58.90
64718;DHT22;62506;46.070;14.492;2024-03-17T06:20:00;22.00;58.90
64718;DHT22;62506;46.070;14.492;2024-03-17T06:22:28;22.00;59.00
64718;DHT22;62506;46.070;14.492;2024-03-17T06:24:53;22.00;59.00
64718;DHT22;62506;46.070;14.492;2024-03-17T06:27:19;22.00;59.00
64718;DHT22;62506;46.070;14.492;2024-03-17T06:29:44;22.00;59.00
64718;DHT22;62506;46.070;14.492;2024-03-17T06:32:11;22.00;58.90
64718;DHT22;62506;46.070;14.492;2024-03-17T06:34:37;22.00;58.90
64718;DHT22;62506;46.070;14.492;2024-03-17T06:37:02;22.00;58.90
64718;DHT22;62506;46.070;14.492;2024-03-17T06:39:28;22.00;58.90
64718;DHT22;62506;46.070;14.492;2024-03-17T06:41:53;22.00;58.60
64718;DHT22;62506;46.070;14.492;2024-03-17T06:44:19;22.00;58.60
64718;DHT22;62506;46.070;14.492;2024-03-17T06:46:45;22.00;59.00
64718;DHT22;62506;46.070;14.492;2024-03-17T06:49:12;21.90;57.90
64718;DHT22;62506;46.070;14.492;2024-03-17T06:51:37;21.90;59.10
64718;DHT22;62506;46.070;14.492;2024-03-17T06:54:03;22.00;59.20
64718;DHT22;62506;46.070;14.492;2024-03-17T06:56:29;22.00;59.20
64718;DHT22;62506;46.070;14.492;2024-03-17T06:58:54;22.00;59.20
64718;DHT22;62506;46.070;14.492;2024-03-17T07:01:20;22.00;59.30
64718;DHT22;62506;46.070;14.492;2024-03-17T07:03:45;22.00;59.50
64718;DHT22;62506;46.070;14.492;2024-03-17T07:06:11;22.00;59.10
64718;DHT22;62506;46.070;14.492;2024-03-17T07:08:36;22.20;58.70
64718;DHT22;62506;46.070;14.492;2024-03-17T07:11:03;22.40;58.20
64718;DHT22;62506;46.070;14.492;2024-03-17T07:13:32;22.60;57.90
64718;DHT22;62506;46.070;14.492;2024-03-17T07:15:59;22.60;57.70
64718;DHT22;62506;46.070;14.492;2024-03-17T07:18:25;22.70;57.40
64718;DHT22;62506;46.070;14.492;2024-03-17T07:20:50;22.70;57.20
64718;DHT22;62506;46.070;14.492;2024-03-17T07:23:16;22.70;57.30
64718;DHT22;62506;46.070;14.492;2024-03-17T07:25:42;22.70;57.20
64718;DHT22;62506;46.070;14.492;2024-03-17T07:28:08;22.70;57.50
64718;DHT22;62506;46.070;14.492;2024-03-17T07:30:33;22.70;57.50
64718;DHT22;62506;46.070;14.492;2024-03-17T07:32:59;22.70;57.70
64718;DHT22;62506;46.070;14.492;2024-03-17T07:35:24;22.60;57.90
64718;DHT22;62506;46.070;14.492;2024-03-17T07:37:50;22.60;58.00
64718;DHT22;62506;46.070;14.492;2024-03-17T07:40:16;22.60;58.10
64718;DHT22;62506;46.070;14.492;2024-03-17T07:42:42;22.60;58.20
64718;DHT22;62506;46.070;14.492;2024-03-17T07:45:07;22.50;56.00
64718;DHT22;62506;46.070;14.492;2024-03-17T07:47:33;22.20;57.80
64718;DHT22;62506;46.070;14.492;2024-03-17T07:50:04;22.30;58.60
64718;DHT22;62506;46.070;14.492;2024-03-17T07:52:31;22.30;58.50
64718;DHT22;62506;46.070;14.492;2024-03-17T07:54:56;22.30;58.40
64718;DHT22;62506;46.070;14.492;2024-03-17T07:57:22;22.30;58.30
64718;DHT22;62506;46.070;14.492;2024-03-17T07:59:50;22.30;58.30
64718;DHT22;62506;46.070;14.492;2024-03-17T08:02:19;22.30;59.00
64718;DHT22;62506;46.070;14.492;2024-03-17T08:04:44;22.30;58.20
64718;DHT22;62506;46.070;14.492;2024-03-17T08:07:10;22.30;58.20
64718;DHT22;62506;46.070;14.492;2024-03-17T08:09:36;22.30;58.20
64718;DHT22;62506;46.070;14.492;2024-03-17T08:12:01;22.30;58.20
64718;DHT22;62506;46.070;14.492;2024-03-17T08:14:29;22.30;58.20
64718;DHT22;62506;46.070;14.492;2024-03-17T08:16:55;22.30;58.20
64718;DHT22;62506;46.070;14.492;2024-03-17T08:19:20;22.30;58.20
64718;DHT22;62506;46.070;14.492;2024-03-17T08:21:46;22.30;58.20
64718;DHT22;62506;46.070;14.492;2024-03-17T08:24:11;22.30;58.20
64718;DHT22;62506;46.070;14.492;2024-03-17T08:26:38;22.30;58.50
64718;DHT22;62506;46.070;14.492;2024-03-17T08:29:05;22.30;58.20
64718;DHT22;62506;46.070;14.492;2024-03-17T08:31:31;22.20;56.60
64718;DHT22;62506;46.070;14.492;2024-03-17T08:33:57;22.10;58.30
64718;DHT22;62506;46.070;14.492;2024-03-17T08:36:22;22.20;58.30
64718;DHT22;62506;46.070;14.492;2024-03-17T08:38:48;22.20;58.10
64718;DHT22;62506;46.070;14.492;2024-03-17T08:41:13;22.20;58.00
64718;DHT22;62506;46.070;14.492;2024-03-17T08:43:39;22.30;57.90
64718;DHT22;62506;46.070;14.492;2024-03-17T08:46:07;22.30;57.90
64718;DHT22;62506;46.070;14.492;2024-03-17T08:48:42;22.30;57.90
64718;DHT22;62506;46.070;14.492;2024-03-17T08:51:08;22.30;57.90
64718;DHT22;62506;46.070;14.492;2024-03-17T08:53:34;22.30;57.80
64718;DHT22;62506;46.070;14.492;2024-03-17T08:55:59;22.40;57.80
64718;DHT22;62506;46.070;14.492;2024-03-17T08:58:25;22.40;59.60
64718;DHT22;62506;46.070;14.492;2024-03-17T09:00:51;22.40;58.20
64718;DHT22;62506;46.070;14.492;2024-03-17T09:03:17;22.40;58.20
64718;DHT22;62506;46.070;14.492;2024-03-17T09:05:43;22.40;58.40
64718;DHT22;62506;46.070;14.492;2024-03-17T09:08:19;22.40;60.00
64718;DHT22;62506;46.070;14.492;2024-03-17T09:10:45;22.40;59.30
64718;DHT22;62506;46.070;14.492;2024-03-17T09:13:15;22.40;59.20
64718;DHT22;62506;46.070;14.492;2024-03-17T09:15:49;22.40;59.90
64718;DHT22;62506;46.070;14.492;2024-03-17T09:18:14;22.40;59.20
64718;DHT22;62506;46.070;14.492;2024-03-17T09:20:40;22.40;59.90
64718;DHT22;62506;46.070;14.492;2024-03-17T09:23:05;22.30;60.10
64718;DHT22;62506;46.070;14.492;2024-03-17T09:25:31;22.40;60.20
64718;DHT22;62506;46.070;14.492;2024-03-17T09:27:56;22.40;59.70
64718;DHT22;62506;46.070;14.492;2024-03-17T09:30:23;22.40;59.80
64718;DHT22;62506;46.070;14.492;2024-03-17T09:32:50;22.40;60.00
64718;DHT22;62506;46.070;14.492;2024-03-17T09:35:15;22.40;60.40
64718;DHT22;62506;46.070;14.492;2024-03-17T09:37:40;22.40;60.10
64718;DHT22;62506;46.070;14.492;2024-03-17T09:40:09;22.40;60.10
64718;DHT22;62506;46.070;14.492;2024-03-17T09:42:38;22.40;60.10
64718;DHT22;62506;46.070;14.492;2024-03-17T09:45:05;22.40;59.20
64718;DHT22;62506;46.070;14.492;2024-03-17T09:47:32;22.40;59.80
64718;DHT22;62506;46.070;14.492;2024-03-17T09:49:57;22.50;59.40
64718;DHT22;62506;46.070;14.492;2024-03-17T09:52:24;22.50;59.60
64718;DHT22;62506;46.070;14.492;2024-03-17T09:54:54;22.30;56.50
64718;DHT22;62506;46.070;14.492;2024-03-17T09:57:21;22.20;58.80
64718;DHT22;62506;46.070;14.492;2024-03-17T09:59:51;22.30;59.40
64718;DHT22;62506;46.070;14.492;2024-03-17T10:02:17;22.30;59.80
64718;DHT22;62506;46.070;14.492;2024-03-17T10:04:43;22.30;59.20
64718;DHT22;62506;46.070;14.492;2024-03-17T10:07:09;22.30;59.00
64718;DHT22;62506;46.070;14.492;2024-03-17T10:09:35;22.40;59.20
64718;DHT22;62506;46.070;14.492;2024-03-17T10:12:01;22.40;59.20
64718;DHT22;62506;46.070;14.492;2024-03-17T10:14:27;22.40;59.30
64718;DHT22;62506;46.070;14.492;2024-03-17T10:16:53;22.40;59.20
64718;DHT22;62506;46.070;14.492;2024-03-17T10:19:22;22.40;59.40
64718;DHT22;62506;46.070;14.492;2024-03-17T10:21:48;22.50;59.90
64718;DHT22;62506;46.070;14.492;2024-03-17T10:26:47;22.40;59.30
64718;DHT22;62506;46.070;14.492;2024-03-17T10:29:18;22.40;60.20
64718;DHT22;62506;46.070;14.492;2024-03-17T10:31:45;22.40;60.80
64718;DHT22;62506;46.070;14.492;2024-03-17T10:34:14;22.40;60.20
64718;DHT22;62506;46.070;14.492;2024-03-17T10:36:40;22.40;60.60
64718;DHT22;62506;46.070;14.492;2024-03-17T10:39:14;22.40;61.20
64718;DHT22;62506;46.070;14.492;2024-03-17T10:41:42;22.40;60.10
64718;DHT22;62506;46.070;14.492;2024-03-17T10:44:08;22.40;62.60
64718;DHT22;62506;46.070;14.492;2024-03-17T10:46:34;22.40;61.60
64718;DHT22;62506;46.070;14.492;2024-03-17T10:49:00;22.40;62.10
64718;DHT22;62506;46.070;14.492;2024-03-17T10:51:25;22.40;62.60
64718;DHT22;62506;46.070;14.492;2024-03-17T10:53:51;22.40;63.50
64718;DHT22;62506;46.070;14.492;2024-03-17T10:56:18;22.40;63.90
64718;DHT22;62506;46.070;14.492;2024-03-17T11:01:16;22.40;63.50
64718;DHT22;62506;46.070;14.492;2024-03-17T11:03:45;22.50;64.50
64718;DHT22;62506;46.070;14.492;2024-03-17T11:06:12;22.60;64.10
64718;DHT22;62506;46.070;14.492;2024-03-17T11:08:38;22.60;64.70
64718;DHT22;62506;46.070;14.492;2024-03-17T11:11:05;22.70;64.80
64718;DHT22;62506;46.070;14.492;2024-03-17T11:13:33;22.80;64.00
64718;DHT22;62506;46.070;14.492;2024-03-17T11:16:00;22.80;62.40
64718;DHT22;62506;46.070;14.492;2024-03-17T11:18:36;22.80;64.20
64718;DHT22;62506;46.070;14.492;2024-03-17T11:21:06;22.60;57.50
64718;DHT22;62506;46.070;14.492;2024-03-17T11:26:06;21.10;51.30
64718;DHT22;62506;46.070;14.492;2024-03-17T11:30:58;21.90;60.40
64718;DHT22;62506;46.070;14.492;2024-03-17T11:44:16;22.60;60.00
64718;DHT22;62506;46.070;14.492;2024-03-17T11:46:43;22.60;60.00
64718;DHT22;62506;46.070;14.492;2024-03-17T11:49:20;22.60;59.90
64718;DHT22;62506;46.070;14.492;2024-03-17T11:51:46;22.60;60.30
64718;DHT22;62506;46.070;14.492;2024-03-17T11:54:18;22.60;61.30
64718;DHT22;62506;46.070;14.492;2024-03-17T11:56:45;22.60;60.70
64718;DHT22;62506;46.070;14.492;2024-03-17T11:59:11;22.60;61.20
64718;DHT22;62506;46.070;14.492;2024-03-17T12:01:36;22.60;62.20
64718;DHT22;62506;46.070;14.492;2024-03-17T12:04:04;22.60;62.40
64718;DHT22;62506;46.070;14.492;2024-03-17T12:06:31;22.60;63.50
64718;DHT22;62506;46.070;14.492;2024-03-17T12:11:41;22.60;64.20
64718;DHT22;62506;46.070;14.492;2024-03-17T12:14:16;22.60;64.50
64718;DHT22;62506;46.070;14.492;2024-03-17T12:16:52;22.60;65.10
64718;DHT22;62506;46.070;14.492;2024-03-17T12:19:18;22.60;64.60
64718;DHT22;62506;46.070;14.492;2024-03-17T12:21:44;22.60;66.00
64718;DHT22;62506;46.070;14.492;2024-03-17T12:24:18;22.60;66.40
64718;DHT22;62506;46.070;14.492;2024-03-17T12:26:44;22.60;66.00
64718;DHT22;62506;46.070;14.492;2024-03-17T12:34:39;22.60;66.70
64718;DHT22;62506;46.070;14.492;2024-03-17T12:37:05;22.60;67.30
64718;DHT22;62506;46.070;14.492;2024-03-17T12:39:32;22.60;67.50
64718;DHT22;62506;46.070;14.492;2024-03-17T12:44:30;22.70;67.70
64718;DHT22;62506;46.070;14.492;2024-03-17T12:46:59;22.60;66.80
64718;DHT22;62506;46.070;14.492;2024-03-17T12:49:28;22.70;67.20
64718;DHT22;62506;46.070;14.492;2024-03-17T12:51:54;22.70;67.20
64718;DHT22;62506;46.070;14.492;2024-03-17T12:54:21;22.60;67.00
64718;DHT22;62506;46.070;14.492;2024-03-17T12:56:48;22.60;67.30
64718;DHT22;62506;46.070;14.492;2024-03-17T12:59:39;22.60;67.00
64718;DHT22;62506;46.070;14.492;2024-03-17T13:02:23;22.60;66.70
64718;DHT22;62506;46.070;14.492;2024-03-17T13:07:46;22.60;66.30
64718;DHT22;62506;46.070;14.492;2024-03-17T13:10:15;22.60;67.10
64718;DHT22;62506;46.070;14.492;2024-03-17T13:12:41;22.60;67.00
64718;DHT22;62506;46.070;14.492;2024-03-17T13:15:10;22.70;66.70
64718;DHT22;62506;46.070;14.492;2024-03-17T13:17:37;22.60;66.40
64718;DHT22;62506;46.070;14.492;2024-03-17T13:20:03;22.60;66.60
64718;DHT22;62506;46.070;14.492;2024-03-17T13:22:29;22.60;66.00
64718;DHT22;62506;46.070;14.492;2024-03-17T13:24:55;22.60;66.40
64718;DHT22;62506;46.070;14.492;2024-03-17T13:27:20;22.60;66.20
64718;DHT22;62506;46.070;14.492;2024-03-17T13:29:49;22.70;66.50
64718;DHT22;62506;46.070;14.492;2024-03-17T13:32:15;22.70;66.70
64718;DHT22;62506;46.070;14.492;2024-03-17T13:34:42;22.60;66.50
64718;DHT22;62506;46.070;14.492;2024-03-17T13:37:08;22.60;66.20
64718;DHT22;62506;46.070;14.492;2024-03-17T13:39:33;22.60;65.80
64718;DHT22;62506;46.070;14.492;2024-03-17T13:41:59;22.70;66.30
64718;DHT22;62506;46.070;14.492;2024-03-17T13:44:31;22.60;66.50
64718;DHT22;62506;46.070;14.492;2024-03-17T13:46:57;22.60;66.60
64718;DHT22;62506;46.070;14.492;2024-03-17T13:49:24;22.60;66.60
64718;DHT22;62506;46.070;14.492;2024-03-17T13:51:49;22.50;63.90
64718;DHT22;62506;46.070;14.492;2024-03-17T13:54:15;21.90;55.40
64718;DHT22;62506;46.070;14.492;2024-03-17T13:56:41;21.40;54.10
64718;DHT22;62506;46.070;14.492;2024-03-17T13:59:06;21.20;52.60
64718;DHT22;62506;46.070;14.492;2024-03-17T14:01:32;21.40;51.30
64718;DHT22;62506;46.070;14.492;2024-03-17T14:06:24;21.70;48.60
64718;DHT22;62506;46.070;14.492;2024-03-17T14:08:49;21.20;48.70
64718;DHT22;62506;46.070;14.492;2024-03-17T14:11:15;21.10;50.20
64718;DHT22;62506;46.070;14.492;2024-03-17T14:13:40;21.20;51.60
64718;DHT22;62506;46.070;14.492;2024-03-17T14:16:06;21.50;52.20
64718;DHT22;62506;46.070;14.492;2024-03-17T14:18:31;21.70;55.10
64718;DHT22;62506;46.070;14.492;2024-03-17T14:21:00;21.90;55.60
64718;DHT22;62506;46.070;14.492;2024-03-17T14:23:26;22.00;56.40
64718;DHT22;62506;46.070;14.492;2024-03-17T14:25:54;22.00;57.00
64718;DHT22;62506;46.070;14.492;2024-03-17T14:28:19;22.10;57.10
64718;DHT22;62506;46.070;14.492;2024-03-17T14:30:45;22.10;57.10
64718;DHT22;62506;46.070;14.492;2024-03-17T14:33:11;22.10;57.10
64718;DHT22;62506;46.070;14.492;2024-03-17T14:35:36;22.00;52.90
64718;DHT22;62506;46.070;14.492;2024-03-17T14:38:03;21.80;51.50
64718;DHT22;62506;46.070;14.492;2024-03-17T14:40:29;21.40;50.10
64718;DHT22;62506;46.070;14.492;2024-03-17T14:42:55;21.30;49.90
64718;DHT22;62506;46.070;14.492;2024-03-17T14:45:21;21.20;50.70
64718;DHT22;62506;46.070;14.492;2024-03-17T14:47:49;21.40;52.20
64718;DHT22;62506;46.070;14.492;2024-03-17T14:50:14;21.60;53.50
64718;DHT22;62506;46.070;14.492;2024-03-17T14:52:41;21.80;54.80
64718;DHT22;62506;46.070;14.492;2024-03-17T14:55:07;21.90;55.40
64718;DHT22;62506;46.070;14.492;2024-03-17T14:57:35;22.00;55.60
64718;DHT22;62506;46.070;14.492;2024-03-17T15:00:00;22.10;55.30
64718;DHT22;62506;46.070;14.492;2024-03-17T15:02:26;22.20;56.70
64718;DHT22;62506;46.070;14.492;2024-03-17T15:04:52;22.30;55.70
64718;DHT22;62506;46.070;14.492;2024-03-17T15:07:18;22.40;55.90
64718;DHT22;62506;46.070;14.492;2024-03-17T15:09:43;22.50;56.10
64718;DHT22;62506;46.070;14.492;2024-03-17T15:12:09;22.60;56.00
64718;DHT22;62506;46.070;14.492;2024-03-17T15:14:35;22.60;55.80
64718;DHT22;62506;46.070;14.492;2024-03-17T15:17:02;22.70;56.40
64718;DHT22;62506;46.070;14.492;2024-03-17T15:19:28;22.70;56.30
64718;DHT22;62506;46.070;14.492;2024-03-17T15:21:53;22.70;56.70
64718;DHT22;62506;46.070;14.492;2024-03-17T15:24:19;22.70;56.60
64718;DHT22;62506;46.070;14.492;2024-03-17T15:26:44;22.70;56.70
64718;DHT22;62506;46.070;14.492;2024-03-17T15:29:11;22.70;57.00
64718;DHT22;62506;46.070;14.492;2024-03-17T15:31:37;22.70;56.50
64718;DHT22;62506;46.070;14.492;2024-03-17T15:34:03;22.70;57.10
64718;DHT22;62506;46.070;14.492;2024-03-17T15:36:29;22.80;57.30
64718;DHT22;62506;46.070;14.492;2024-03-17T15:38:55;22.80;57.30
64718;DHT22;62506;46.070;14.492;2024-03-17T15:41:20;22.80;57.30
64718;DHT22;62506;46.070;14.492;2024-03-17T15:43:46;22.80;57.40
64718;DHT22;62506;46.070;14.492;2024-03-17T15:46:15;22.80;57.50
64718;DHT22;62506;46.070;14.492;2024-03-17T15:48:41;22.70;58.00